Time;durP1;ratioP1;P1;durP2;ratioP2;P2;SDS_P1;SDS_P2;PMS_P1;PMS_P2;Temp;Humidity;BMP_temperature;BMP_pressure;BME280_temperature;BME280_humidity;BME280_pressure;Samples;Min_cycle;Max_cycle;Signal;HPM_P1;HPM_P2
2022/02/05 00:00:54;;;;;;;;;;;;;;;;;;2100852;28;19916;-77
2022/02/05 00:02:19;;;;;;;;;;;;;;;;;;2099768;28;19920;-78
2022/02/05 00:03:45;;;;;;;;;;;;;;;;;;2101945;28;19999;-78
2022/02/05 00:05:04;;;;;;;;;;;;;;;;;;2103040;28;19920;-77
2022/02/05 00:06:29;;;;;;;;;;;;;;;;;;2100232;28;20371;-76
2022/02/05 00:07:58;;;;;;;;;;;;;;;;;;2103666;28;20271;-77
2022/02/05 00:14:31;;;;;;;;;;;;;;;;;;2100304;28;19932;-76
2022/02/05 00:19:55;;;;;;;;;;;;;;;;;;2099414;28;20353;-76
2022/02/05 00:39:22;;;;;;;;;;;;;;;;;;2104811;28;19921;-78
2022/02/05 00:45:12;;;;;;;;;;;;;;;;;;2103753;28;19921;-78
2022/02/05 00:46:36;;;;;;;;;;;;;;;;;;2100997;28;19912;-76
2022/02/05 00:47:56;;;;;;;;;;;;;;;;;;2099844;28;20304;-75
2022/02/05 00:49:16;;;;;;;;;;;;;;;;;;2101240;28;19916;-74
2022/02/05 00:50:38;;;;;;;;;;;;;;;;;;2100909;28;19944;-74
2022/02/05 00:52:06;;;;;;;;;;;;;;;;;;2099982;28;19912;-74
2022/02/05 00:53:35;;;;;;;;;;;;;;;;;;2096207;28;20431;-75
2022/02/05 00:55:02;;;;;;;;;;;;;;;;;;2100084;28;19912;-74
2022/02/05 00:56:26;;;;;;;;;;;;;;;;;;2100185;28;20355;-74
2022/02/05 00:57:45;;;;;;;;;;;;;;;;;;2099233;28;19959;-74
2022/02/05 00:59:04;;;;;;;;;;;;;;;;;;2101314;28;19912;-74
2022/02/05 01:00:23;;;;;;;;;;;;;;;;;;2099967;28;19912;-75
2022/02/05 01:01:42;;;;;;;;;;;;;;;;;;2099025;28;19912;-74
2022/02/05 01:03:01;;;;;;;;;;;;;;;;;;2098823;28;19916;-75
2022/02/05 01:04:20;;;;;;;;;;;;;;;;;;2101101;28;19908;-76
2022/02/05 01:05:38;;;;;;;;;;;;;;;;;;2100612;28;19913;-76
2022/02/05 01:06:57;;;;;;;;;;;;;;;;;;2099077;28;19920;-75
2022/02/05 01:08:17;;;;;;;;;;;;;;;;;;2095123;28;19913;-75
2022/02/05 01:09:35;;;;;;;;;;;;;;;;;;2099772;28;19913;-75
2022/02/05 01:10:54;;;;;;;;;;;;;;;;;;2099163;28;19916;-76
2022/02/05 01:12:13;;;;;;;;;;;;;;;;;;2100165;28;19924;-75
2022/02/05 01:13:34;;;;;;;;;;;;;;;;;;2101179;28;20226;-76
2022/02/05 01:14:56;;;;;;;;;;;;;;;;;;2099458;28;19913;-75
2022/02/05 01:16:26;;;;;;;;;;;;;;;;;;2099950;28;20407;-75
2022/02/05 01:17:51;;;;;;;;;;;;;;;;;;2099329;28;20379;-75
2022/02/05 01:19:23;;;;;;;;;;;;;;;;;;2098313;28;19995;-75
2022/02/05 01:21:09;;;;;;;;;;;;;;;;;;2099704;28;20351;-76
2022/02/05 01:22:29;;;;;;;;;;;;;;;;;;2100401;28;19909;-75
2022/02/05 01:23:53;;;;;;;;;;;;;;;;;;2100257;28;20006;-77
2022/02/05 01:25:15;;;;;;;;;;;;;;;;;;2099990;28;19913;-77
2022/02/05 01:26:39;;;;;;;;;;;;;;;;;;2099567;28;19928;-77
2022/02/05 01:28:05;;;;;;;;;;;;;;;;;;2099107;28;20394;-77
2022/02/05 01:30:48;;;;;;;;;;;;;;;;;;2100564;28;19924;-77
2022/02/05 01:32:12;;;;;;;;;;;;;;;;;;2100923;28;19913;-79
2022/02/05 01:35:07;;;;;;;;;;;;;;;;;;2099925;28;20342;-78
2022/02/05 01:52:50;;;;;;;;;;;;;;;;;;2099208;28;19991;-78
2022/02/05 01:54:29;;;;;;;;;;;;;;;;;;2100309;28;20329;-78
2022/02/05 01:56:12;;;;;;;;;;;;;;;;;;2101839;28;20469;-76
2022/02/05 02:05:27;;;;;;;;;;;;;;;;;;2099562;28;19908;-76
2022/02/05 02:10:19;;;;;;;;;;;;;;;;;;2099982;28;19924;-76
2022/02/05 02:11:59;;;;;;;;;;;;;;;;;;2099830;28;19912;-76
2022/02/05 02:16:27;;;;;;;;;;;;;;;;;;2101902;28;19920;-76
2022/02/05 02:24:12;;;;;;;;;;;;;;;;;;2101758;28;19916;-77
2022/02/05 02:25:52;;;;;;;;;;;;;;;;;;2103787;28;19916;-77
2022/02/05 02:28:50;;;;;;;;;;;;;;;;;;2102076;28;19920;-77
2022/02/05 02:30:17;;;;;;;;;;;;;;;;;;2103607;28;19920;-77
2022/02/05 02:31:41;;;;;;;;;;;;;;;;;;2102372;28;19913;-77
2022/02/05 02:33:10;;;;;;;;;;;;;;;;;;2102192;28;19912;-77
2022/02/05 02:34:34;;;;;;;;;;;;;;;;;;2100653;28;20022;-77
2022/02/05 02:35:53;;;;;;;;;;;;;;;;;;2102471;28;19908;-77
2022/02/05 02:37:14;;;;;;;;;;;;;;;;;;2101117;28;19912;-76
2022/02/05 02:38:41;;;;;;;;;;;;;;;;;;2100698;28;19924;-76
2022/02/05 02:41:35;;;;;;;;;;;;;;;;;;2100622;28;19916;-75
2022/02/05 02:43:00;;;;;;;;;;;;;;;;;;2098575;28;19908;-75
2022/02/05 02:44:20;;;;;;;;;;;;;;;;;;2098069;28;20375;-75
2022/02/05 02:45:44;;;;;;;;;;;;;;;;;;2100871;28;19921;-75
2022/02/05 02:47:03;;;;;;;;;;;;;;;;;;2100701;28;19912;-76
2022/02/05 02:48:22;;;;;;;;;;;;;;;;;;2101130;28;19924;-75
2022/02/05 02:49:55;;;;;;;;;;;;;;;;;;2099757;28;19995;-76
2022/02/05 02:57:29;;;;;;;;;;;;;;;;;;2099857;28;19989;-76
2022/02/05 02:58:49;;;;;;;;;;;;;;;;;;2100060;28;20003;-76
2022/02/05 03:00:11;;;;;;;;;;;;;;;;;;2100242;28;19957;-75
2022/02/05 03:01:32;;;;;;;;;;;;;;;;;;2100897;28;19920;-75
2022/02/05 03:02:51;;;;;;;;;;;;;;;;;;2097351;28;20367;-76
2022/02/05 03:04:10;;;;;;;;;;;;;;;;;;2101861;28;19916;-76
2022/02/05 03:05:29;;;;;;;;;;;;;;;;;;2102914;28;20373;-76
2022/02/05 03:06:48;;;;;;;;;;;;;;;;;;2101244;28;20345;-76
2022/02/05 03:08:08;;;;;;;;;;;;;;;;;;2100342;28;19916;-76
2022/02/05 03:09:27;;;;;;;;;;;;;;;;;;2098942;28;20294;-76
2022/02/05 03:10:46;;;;;;;;;;;;;;;;;;2100574;28;19909;-75
2022/02/05 03:12:05;;;;;;;;;;;;;;;;;;2100649;28;19925;-75
2022/02/05 03:13:24;;;;;;;;;;;;;;;;;;2101416;28;20381;-76
2022/02/05 03:14:43;;;;;;;;;;;;;;;;;;2101056;28;19909;-75
2022/02/05 03:16:02;;;;;;;;;;;;;;;;;;2100915;28;19916;-75
2022/02/05 03:17:23;;;;;;;;;;;;;;;;;;2100069;28;19912;-75
2022/02/05 03:18:49;;;;;;;;;;;;;;;;;;2101131;28;20284;-75
2022/02/05 03:20:08;;;;;;;;;;;;;;;;;;2099499;28;19916;-75
2022/02/05 03:21:27;;;;;;;;;;;;;;;;;;2100872;28;20349;-75
2022/02/05 03:22:46;;;;;;;;;;;;;;;;;;2102211;28;19914;-75
2022/02/05 03:24:05;;;;;;;;;;;;;;;;;;2101603;28;20277;-76
2022/02/05 03:25:24;;;;;;;;;;;;;;;;;;2099761;28;19920;-76
2022/02/05 03:26:43;;;;;;;;;;;;;;;;;;2100753;28;19916;-76
2022/02/05 03:28:01;;;;;;;;;;;;;;;;;;2101218;28;19908;-76
2022/02/05 03:29:20;;;;;;;;;;;;;;;;;;2100511;28;19916;-76
2022/02/05 03:30:39;;;;;;;;;;;;;;;;;;2100246;28;19912;-76
2022/02/05 03:31:58;;;;;;;;;;;;;;;;;;2102799;28;19912;-76
2022/02/05 03:33:17;;;;;;;;;;;;;;;;;;2101287;28;20278;-76
2022/02/05 03:34:36;;;;;;;;;;;;;;;;;;2101105;28;20568;-76
2022/02/05 03:35:55;;;;;;;;;;;;;;;;;;2101606;28;19912;-76
2022/02/05 03:37:15;;;;;;;;;;;;;;;;;;2101197;28;19916;-76
2022/02/05 03:38:33;;;;;;;;;;;;;;;;;;2100977;28;19908;-76
2022/02/05 03:39:52;;;;;;;;;;;;;;;;;;2100447;28;19913;-76
2022/02/05 03:41:11;;;;;;;;;;;;;;;;;;2100787;28;19913;-76
2022/02/05 03:42:30;;;;;;;;;;;;;;;;;;2101021;28;19920;-76
2022/02/05 03:43:49;;;;;;;;;;;;;;;;;;2101688;28;19909;-76
2022/02/05 03:45:09;;;;;;;;;;;;;;;;;;2099418;28;19921;-76
2022/02/05 03:46:29;;;;;;;;;;;;;;;;;;2100496;28;19916;-76
2022/02/05 03:47:51;;;;;;;;;;;;;;;;;;2098502;28;20393;-76
2022/02/05 03:49:13;;;;;;;;;;;;;;;;;;2097142;28;19908;-76
2022/02/05 03:50:32;;;;;;;;;;;;;;;;;;2099291;28;19916;-76
2022/02/05 03:51:52;;;;;;;;;;;;;;;;;;2101128;28;19913;-76
2022/02/05 03:53:12;;;;;;;;;;;;;;;;;;2101092;28;19917;-76
2022/02/05 03:54:33;;;;;;;;;;;;;;;;;;2101536;28;19921;-76
2022/02/05 03:55:52;;;;;;;;;;;;;;;;;;2100026;28;19999;-76
2022/02/05 03:57:11;;;;;;;;;;;;;;;;;;2101323;28;19908;-76
2022/02/05 03:58:30;;;;;;;;;;;;;;;;;;2100150;28;20282;-76
2022/02/05 03:59:50;;;;;;;;;;;;;;;;;;2100863;28;20014;-75
2022/02/05 04:01:08;;;;;;;;;;;;;;;;;;2100960;28;20002;-75
2022/02/05 04:02:27;;;;;;;;;;;;;;;;;;2100177;28;19974;-75
2022/02/05 04:03:46;;;;;;;;;;;;;;;;;;2101506;28;19951;-76
2022/02/05 04:05:05;;;;;;;;;;;;;;;;;;2102661;28;19913;-76
2022/02/05 04:06:24;;;;;;;;;;;;;;;;;;2100320;28;20309;-76
2022/02/05 04:07:48;;;;;;;;;;;;;;;;;;2101610;28;19912;-75
2022/02/05 04:09:15;;;;;;;;;;;;;;;;;;2101084;28;19912;-76
2022/02/05 04:10:43;;;;;;;;;;;;;;;;;;2098290;28;20405;-75
2022/02/05 04:16:47;;;;;;;;;;;;;;;;;;2098287;28;20376;-76
2022/02/05 04:18:06;;;;;;;;;;;;;;;;;;2100560;28;19956;-75
2022/02/05 04:19:25;;;;;;;;;;;;;;;;;;2099616;28;19920;-75
2022/02/05 04:20:44;;;;;;;;;;;;;;;;;;2097572;28;19917;-76
2022/02/05 04:22:02;;;;;;;;;;;;;;;;;;2101863;28;20070;-75
2022/02/05 04:23:22;;;;;;;;;;;;;;;;;;2100695;28;20227;-76
2022/02/05 04:24:40;;;;;;;;;;;;;;;;;;2101133;28;19912;-75
2022/02/05 04:25:59;;;;;;;;;;;;;;;;;;2098418;28;19924;-76
2022/02/05 04:27:18;;;;;;;;;;;;;;;;;;2099768;28;20002;-76
2022/02/05 04:28:37;;;;;;;;;;;;;;;;;;2099733;28;19947;-75
2022/02/05 04:29:56;;;;;;;;;;;;;;;;;;2100451;28;19916;-75
2022/02/05 04:31:15;;;;;;;;;;;;;;;;;;2097473;28;20015;-75
2022/02/05 04:32:34;;;;;;;;;;;;;;;;;;2100447;28;19912;-75
2022/02/05 04:33:53;;;;;;;;;;;;;;;;;;2101489;28;19916;-76
2022/02/05 04:35:11;;;;;;;;;;;;;;;;;;2101966;28;19908;-75
2022/02/05 04:36:30;;;;;;;;;;;;;;;;;;2097927;28;19912;-72
2022/02/05 04:37:52;;;;;;;;;;;;;;;;;;2100071;28;19911;-74
2022/02/05 04:39:15;;;;;;;;;;;;;;;;;;2101620;28;19912;-76
2022/02/05 04:40:43;;;;;;;;;;;;;;;;;;2098901;28;20002;-74
2022/02/05 04:42:13;;;;;;;;;;;;;;;;;;2101426;28;20374;-76
2022/02/05 04:55:03;;;;;;;;;;;;;;;;;;2099323;28;19999;-76
2022/02/05 04:56:32;;;;;;;;;;;;;;;;;;2098503;28;19908;-75
2022/02/05 05:03:58;;;;;;;;;;;;;;;;;;2099482;28;19916;-76
2022/02/05 05:04:45;;;;;;;;;;;;;;;;;;2093306;28;19912;-76
2022/02/05 05:06:32;;;;;;;;;;;;;;;;;;2100257;28;19912;-76
2022/02/05 05:07:57;;;;;;;;;;;;;;;;;;2100023;28;19920;-75
2022/02/05 05:20:00;;;;;;;;;;;;;;;;;;2103949;28;19912;-78
2022/02/05 05:21:19;;;;;;;;;;;;;;;;;;2103109;28;19980;-78
2022/02/05 05:22:38;;;;;;;;;;;;;;;;;;2100524;28;19956;-76
2022/02/05 05:23:57;;;;;;;;;;;;;;;;;;2104520;28;19911;-77
2022/02/05 05:25:16;;;;;;;;;;;;;;;;;;2103536;28;19916;-78
2022/02/05 05:26:37;;;;;;;;;;;;;;;;;;2101318;28;20010;-77
2022/02/05 05:27:56;;;;;;;;;;;;;;;;;;2100878;28;19991;-78
2022/02/05 05:29:15;;;;;;;;;;;;;;;;;;2098528;28;19921;-77
2022/02/05 05:30:34;;;;;;;;;;;;;;;;;;2100874;28;19916;-78
2022/02/05 05:31:53;;;;;;;;;;;;;;;;;;2100836;28;19912;-77
2022/02/05 05:33:12;;;;;;;;;;;;;;;;;;2100074;28;19908;-78
2022/02/05 05:34:31;;;;;;;;;;;;;;;;;;2099900;28;20054;-77
2022/02/05 05:35:50;;;;;;;;;;;;;;;;;;2098632;28;20367;-77
2022/02/05 05:37:08;;;;;;;;;;;;;;;;;;2097350;28;19952;-78
2022/02/05 05:38:27;;;;;;;;;;;;;;;;;;2100420;28;19908;-78
2022/02/05 05:39:47;;;;;;;;;;;;;;;;;;2102297;28;19912;-78
2022/02/05 05:41:08;;;;;;;;;;;;;;;;;;2100384;28;19913;-76
2022/02/05 05:42:33;;;;;;;;;;;;;;;;;;2098603;28;19912;-77
2022/02/05 05:45:35;;;;;;;;;;;;;;;;;;2101254;28;19921;-77
2022/02/05 05:47:13;;;;;;;;;;;;;;;;;;2100322;28;19948;-77
2022/02/05 05:49:21;;;;;;;;;;;;;;;;;;2103129;28;19920;-78
2022/02/05 05:50:36;;;;;;;;;;;;;;;;;;2097068;28;19917;-77
2022/02/05 05:51:50;;;;;;;;;;;;;;;;;;2099767;28;20015;-77
2022/02/05 05:53:09;;;;;;;;;;;;;;;;;;2101322;28;20003;-77
2022/02/05 05:54:28;;;;;;;;;;;;;;;;;;2100317;28;19909;-77
2022/02/05 05:55:47;;;;;;;;;;;;;;;;;;2101786;28;19994;-77
2022/02/05 05:57:06;;;;;;;;;;;;;;;;;;2099556;28;19912;-76
2022/02/05 05:58:25;;;;;;;;;;;;;;;;;;2097053;28;19912;-75
2022/02/05 05:59:44;;;;;;;;;;;;;;;;;;2098840;28;20362;-76
2022/02/05 06:01:03;;;;;;;;;;;;;;;;;;2100810;28;19912;-75
2022/02/05 06:02:21;;;;;;;;;;;;;;;;;;2099822;28;19948;-76
2022/02/05 06:03:40;;;;;;;;;;;;;;;;;;2098322;28;19912;-75
2022/02/05 06:04:59;;;;;;;;;;;;;;;;;;2100469;28;20496;-76
2022/02/05 06:06:18;;;;;;;;;;;;;;;;;;2101124;28;20301;-76
2022/02/05 06:07:37;;;;;;;;;;;;;;;;;;2098585;28;19912;-76
2022/02/05 06:08:56;;;;;;;;;;;;;;;;;;2098532;28;19908;-75
2022/02/05 06:10:15;;;;;;;;;;;;;;;;;;2101205;28;19917;-75
2022/02/05 06:11:34;;;;;;;;;;;;;;;;;;2100825;28;19924;-76
2022/02/05 06:12:53;;;;;;;;;;;;;;;;;;2099285;28;20274;-76
2022/02/05 06:14:17;;;;;;;;;;;;;;;;;;2100271;28;19912;-76
2022/02/05 06:15:37;;;;;;;;;;;;;;;;;;2101754;28;19916;-76
2022/02/05 06:17:07;;;;;;;;;;;;;;;;;;2099027;28;19913;-76
2022/02/05 06:18:26;;;;;;;;;;;;;;;;;;2098503;28;19921;-75
2022/02/05 06:19:44;;;;;;;;;;;;;;;;;;2102706;28;19912;-76
2022/02/05 06:21:03;;;;;;;;;;;;;;;;;;2101076;28;19948;-75
2022/02/05 06:22:23;;;;;;;;;;;;;;;;;;2102434;28;20278;-76
2022/02/05 06:23:43;;;;;;;;;;;;;;;;;;2101408;28;19913;-75
2022/02/05 06:25:01;;;;;;;;;;;;;;;;;;2100399;28;20010;-75
2022/02/05 06:26:20;;;;;;;;;;;;;;;;;;2101347;28;20323;-77
2022/02/05 06:27:39;;;;;;;;;;;;;;;;;;2101667;28;19912;-75
2022/02/05 06:28:58;;;;;;;;;;;;;;;;;;2101661;28;19912;-75
2022/02/05 06:30:17;;;;;;;;;;;;;;;;;;2096713;28;19913;-75
2022/02/05 06:31:35;;;;;;;;;;;;;;;;;;2101686;28;20358;-75
2022/02/05 06:32:54;;;;;;;;;;;;;;;;;;2098219;28;19956;-75
2022/02/05 06:34:16;;;;;;;;;;;;;;;;;;2102236;28;19916;-76
2022/02/05 06:35:35;;;;;;;;;;;;;;;;;;2102625;28;19912;-76
2022/02/05 06:36:54;;;;;;;;;;;;;;;;;;2101630;28;20363;-75
2022/02/05 06:38:13;;;;;;;;;;;;;;;;;;2101115;28;19920;-75
2022/02/05 06:39:31;;;;;;;;;;;;;;;;;;2102042;28;19908;-76
2022/02/05 06:40:52;;;;;;;;;;;;;;;;;;2102814;28;20215;-74
2022/02/05 06:42:11;;;;;;;;;;;;;;;;;;2100322;28;19955;-75
2022/02/05 06:43:30;;;;;;;;;;;;;;;;;;2099615;28;20359;-76
2022/02/05 06:44:49;;;;;;;;;;;;;;;;;;2102907;28;19913;-76
2022/02/05 06:46:08;;;;;;;;;;;;;;;;;;2102737;28;20322;-76
2022/02/05 06:47:27;;;;;;;;;;;;;;;;;;2101281;28;19960;-75
2022/02/05 06:48:46;;;;;;;;;;;;;;;;;;2101260;28;19916;-75
2022/02/05 06:50:05;;;;;;;;;;;;;;;;;;2102145;28;20011;-75
2022/02/05 06:51:23;;;;;;;;;;;;;;;;;;2101354;28;19912;-74
2022/02/05 06:52:43;;;;;;;;;;;;;;;;;;2101549;28;19916;-74
2022/02/05 06:54:02;;;;;;;;;;;;;;;;;;2096641;28;19916;-74
2022/02/05 06:55:21;;;;;;;;;;;;;;;;;;2096699;28;19920;-75
2022/02/05 06:56:40;;;;;;;;;;;;;;;;;;2096167;28;19952;-75
2022/02/05 06:57:58;;;;;;;;;;;;;;;;;;2101641;28;19908;-75
2022/02/05 06:59:17;;;;;;;;;;;;;;;;;;2099937;28;19916;-74
2022/02/05 07:00:36;;;;;;;;;;;;;;;;;;2099815;28;19991;-75
2022/02/05 07:01:55;;;;;;;;;;;;;;;;;;2100530;28;19912;-75
2022/02/05 07:03:17;;;;;;;;;;;;;;;;;;2099003;28;21275;-75
2022/02/05 07:04:36;;;;;;;;;;;;;;;;;;2100670;28;19912;-75
2022/02/05 07:05:56;;;;;;;;;;;;;;;;;;2099574;28;19916;-75
2022/02/05 07:07:14;;;;;;;;;;;;;;;;;;2098822;28;19920;-75
2022/02/05 07:08:33;;;;;;;;;;;;;;;;;;2098614;28;19909;-75
2022/02/05 07:09:52;;;;;;;;;;;;;;;;;;2100744;28;20374;-74
2022/02/05 07:11:11;;;;;;;;;;;;;;;;;;2099998;28;19912;-74
2022/02/05 07:12:32;;;;;;;;;;;;;;;;;;2098325;28;20374;-75
2022/02/05 07:13:53;;;;;;;;;;;;;;;;;;2098110;28;19917;-75
2022/02/05 07:15:19;;;;;;;;;;;;;;;;;;2100038;28;19920;-75
2022/02/05 07:16:41;;;;;;;;;;;;;;;;;;2099640;28;19909;-75
2022/02/05 07:19:45;;;;;;;;;;;;;;;;;;2099992;28;19916;-75
2022/02/05 07:21:12;;;;;;;;;;;;;;;;;;2101649;28;20370;-75
2022/02/05 07:22:35;;;;;;;;;;;;;;;;;;2101008;28;19917;-75
2022/02/05 07:24:16;;;;;;;;;;;;;;;;;;2098566;28;19920;-75
2022/02/05 07:30:29;;;;;;;;;;;;;;;;;;2100089;28;19913;-74
2022/02/05 07:31:48;;;;;;;;;;;;;;;;;;2099580;28;19917;-75
2022/02/05 07:33:07;;;;;;;;;;;;;;;;;;2098880;28;20006;-74
2022/02/05 07:34:25;;;;;;;;;;;;;;;;;;2099093;28;20458;-75
2022/02/05 07:35:45;;;;;;;;;;;;;;;;;;2100651;28;19912;-75
2022/02/05 07:37:04;;;;;;;;;;;;;;;;;;2099945;28;19988;-75
2022/02/05 07:38:23;;;;;;;;;;;;;;;;;;2097237;28;20394;-75
2022/02/05 07:39:46;;;;;;;;;;;;;;;;;;2099915;28;20370;-75
2022/02/05 07:41:05;;;;;;;;;;;;;;;;;;2101771;28;19912;-74
2022/02/05 07:42:24;;;;;;;;;;;;;;;;;;2100711;28;19920;-75
2022/02/05 07:43:43;;;;;;;;;;;;;;;;;;2100883;28;19924;-75
2022/02/05 07:45:02;;;;;;;;;;;;;;;;;;2100220;28;20382;-74
2022/02/05 07:46:23;;;;;;;;;;;;;;;;;;2101917;28;20351;-74
2022/02/05 07:47:42;;;;;;;;;;;;;;;;;;2099169;28;19921;-74
2022/02/05 07:49:01;;;;;;;;;;;;;;;;;;2100299;28;19912;-75
2022/02/05 07:50:19;;;;;;;;;;;;;;;;;;2099176;28;20358;-74
2022/02/05 07:51:38;;;;;;;;;;;;;;;;;;2100276;28;19908;-74
2022/02/05 07:52:57;;;;;;;;;;;;;;;;;;2099148;28;20472;-74
2022/02/05 07:54:16;;;;;;;;;;;;;;;;;;2099597;28;19916;-75
2022/02/05 07:55:35;;;;;;;;;;;;;;;;;;2100976;28;19909;-75
2022/02/05 07:56:54;;;;;;;;;;;;;;;;;;2100442;28;19912;-75
2022/02/05 07:58:14;;;;;;;;;;;;;;;;;;2099388;28;19912;-73
2022/02/05 07:59:33;;;;;;;;;;;;;;;;;;2099506;28;19944;-74
2022/02/05 08:00:55;;;;;;;;;;;;;;;;;;2100343;28;20458;-74
2022/02/05 08:02:14;;;;;;;;;;;;;;;;;;2101417;28;20465;-75
2022/02/05 08:03:33;;;;;;;;;;;;;;;;;;2098974;28;19913;-76
2022/02/05 08:04:52;;;;;;;;;;;;;;;;;;2097515;28;19990;-76
2022/02/05 08:06:16;;;;;;;;;;;;;;;;;;2098652;28;19912;-75
2022/02/05 08:07:35;;;;;;;;;;;;;;;;;;2098092;28;19963;-76
2022/02/05 08:08:58;;;;;;;;;;;;;;;;;;2100348;28;19909;-76
2022/02/05 08:10:20;;;;;;;;;;;;;;;;;;2097039;28;19920;-76
2022/02/05 08:11:44;;;;;;;;;;;;;;;;;;2100076;28;19912;-75
2022/02/05 08:13:03;;;;;;;;;;;;;;;;;;2098678;28;19920;-76
2022/02/05 08:14:22;;;;;;;;;;;;;;;;;;2099916;28;19912;-75
2022/02/05 08:15:42;;;;;;;;;;;;;;;;;;2100171;28;20329;-75
2022/02/05 08:17:05;;;;;;;;;;;;;;;;;;2099752;28;21091;-75
2022/02/05 08:18:24;;;;;;;;;;;;;;;;;;2099583;28;19952;-75
2022/02/05 08:19:42;;;;;;;;;;;;;;;;;;2098334;28;20378;-75
2022/02/05 08:21:01;;;;;;;;;;;;;;;;;;2099025;28;19912;-75
2022/02/05 08:22:20;;;;;;;;;;;;;;;;;;2098013;28;19920;-75
2022/02/05 08:23:39;;;;;;;;;;;;;;;;;;2099165;28;19912;-75
2022/02/05 08:24:58;;;;;;;;;;;;;;;;;;2099492;28;19924;-76
2022/02/05 08:26:17;;;;;;;;;;;;;;;;;;2101127;28;19917;-76
2022/02/05 08:27:38;;;;;;;;;;;;;;;;;;2098718;28;20429;-76
2022/02/05 08:28:57;;;;;;;;;;;;;;;;;;2098471;28;19920;-75
2022/02/05 08:30:16;;;;;;;;;;;;;;;;;;2097148;28;20370;-76
2022/02/05 08:31:34;;;;;;;;;;;;;;;;;;2101459;28;20355;-75
2022/02/05 08:32:53;;;;;;;;;;;;;;;;;;2099609;28;19913;-76
2022/02/05 08:34:12;;;;;;;;;;;;;;;;;;2098768;28;19908;-76
2022/02/05 08:35:31;;;;;;;;;;;;;;;;;;2099384;28;19956;-76
2022/02/05 08:36:51;;;;;;;;;;;;;;;;;;2100531;28;19912;-76
2022/02/05 08:38:09;;;;;;;;;;;;;;;;;;2100270;28;19909;-74
2022/02/05 08:39:28;;;;;;;;;;;;;;;;;;2096484;28;19917;-73
2022/02/05 08:40:47;;;;;;;;;;;;;;;;;;2097569;28;19916;-72
2022/02/05 08:42:06;;;;;;;;;;;;;;;;;;2099976;28;20309;-72
2022/02/05 08:43:25;;;;;;;;;;;;;;;;;;2099861;28;20329;-73
2022/02/05 08:44:44;;;;;;;;;;;;;;;;;;2098444;28;19916;-75
2022/02/05 08:46:03;;;;;;;;;;;;;;;;;;2099750;28;19921;-73
2022/02/05 08:47:22;;;;;;;;;;;;;;;;;;2099216;28;19912;-73
2022/02/05 08:48:41;;;;;;;;;;;;;;;;;;2101032;28;19995;-72
2022/02/05 08:50:00;;;;;;;;;;;;;;;;;;2095175;28;20471;-74
2022/02/05 08:51:19;;;;;;;;;;;;;;;;;;2099151;28;19912;-74
2022/02/05 08:52:39;;;;;;;;;;;;;;;;;;2100499;28;19908;-73
2022/02/05 08:53:59;;;;;;;;;;;;;;;;;;2100004;28;19913;-74
2022/02/05 08:55:18;;;;;;;;;;;;;;;;;;2098819;28;19975;-72
2022/02/05 08:56:36;;;;;;;;;;;;;;;;;;2098531;28;19920;-76
2022/02/05 08:57:56;;;;;;;;;;;;;;;;;;2100105;28;20273;-74
2022/02/05 08:59:14;;;;;;;;;;;;;;;;;;2099685;28;19920;-73
2022/02/05 09:00:42;;;;;;;;;;;;;;;;;;2098324;28;20378;-73
2022/02/05 09:02:10;;;;;;;;;;;;;;;;;;2099429;28;19909;-75
2022/02/05 09:03:35;;;;;;;;;;;;;;;;;;2097918;28;19998;-73
2022/02/05 09:06:38;;;;;;;;;;;;;;;;;;2100606;28;19913;-72
2022/02/05 09:07:57;;;;;;;;;;;;;;;;;;2101223;28;19916;-72
2022/02/05 09:10:51;;;;;;;;;;;;;;;;;;2097992;28;19912;-72
2022/02/05 09:12:30;;;;;;;;;;;;;;;;;;2099587;28;19916;-74
2022/02/05 09:14:31;;;;;;;;;;;;;;;;;;2100859;28;19916;-72
2022/02/05 09:15:34;;;;;;;;;;;;;;;;;;2098283;28;19920;-73
2022/02/05 09:16:53;;;;;;;;;;;;;;;;;;2101081;28;20275;-73
2022/02/05 09:18:12;;;;;;;;;;;;;;;;;;2099906;28;19909;-73
2022/02/05 09:19:33;;;;;;;;;;;;;;;;;;2098271;28;19911;-73
2022/02/05 09:20:51;;;;;;;;;;;;;;;;;;2096462;28;20503;-73
2022/02/05 09:22:11;;;;;;;;;;;;;;;;;;2099505;28;19921;-74
2022/02/05 09:23:30;;;;;;;;;;;;;;;;;;2100295;28;19909;-74
2022/02/05 09:24:49;;;;;;;;;;;;;;;;;;2095776;28;19920;-74
2022/02/05 09:26:08;;;;;;;;;;;;;;;;;;2098167;28;20346;-74
2022/02/05 09:27:35;;;;;;;;;;;;;;;;;;2098817;28;19912;-75
2022/02/05 09:29:00;;;;;;;;;;;;;;;;;;2099384;28;19920;-75
2022/02/05 09:30:28;;;;;;;;;;;;;;;;;;2097184;28;20363;-73
2022/02/05 09:31:47;;;;;;;;;;;;;;;;;;2100338;28;20290;-73
2022/02/05 09:33:06;;;;;;;;;;;;;;;;;;2097750;28;19913;-73
2022/02/05 09:34:25;;;;;;;;;;;;;;;;;;2097483;28;19916;-75
2022/02/05 09:35:43;;;;;;;;;;;;;;;;;;2096999;28;19909;-74
2022/02/05 09:37:02;;;;;;;;;;;;;;;;;;2099233;28;20359;-74
2022/02/05 09:38:21;;;;;;;;;;;;;;;;;;2099680;28;19920;-74
2022/02/05 09:39:41;;;;;;;;;;;;;;;;;;2096110;28;20313;-74
2022/02/05 09:41:00;;;;;;;;;;;;;;;;;;2098273;28;19908;-74
2022/02/05 09:42:19;;;;;;;;;;;;;;;;;;2099382;28;19955;-74
2022/02/05 09:43:38;;;;;;;;;;;;;;;;;;2095913;28;19916;-74
2022/02/05 09:44:57;;;;;;;;;;;;;;;;;;2099399;28;20386;-75
2022/02/05 09:46:16;;;;;;;;;;;;;;;;;;2098853;28;19920;-74
2022/02/05 09:47:35;;;;;;;;;;;;;;;;;;2098602;28;19925;-74
2022/02/05 09:48:54;;;;;;;;;;;;;;;;;;2096346;28;19916;-75
2022/02/05 09:50:12;;;;;;;;;;;;;;;;;;2095625;28;19994;-73
2022/02/05 09:51:33;;;;;;;;;;;;;;;;;;2097370;28;19913;-72
2022/02/05 09:52:54;;;;;;;;;;;;;;;;;;2100656;28;19913;-72
2022/02/05 09:54:12;;;;;;;;;;;;;;;;;;2101577;28;19913;-73
2022/02/05 09:55:31;;;;;;;;;;;;;;;;;;2098790;28;19947;-73
2022/02/05 09:56:50;;;;;;;;;;;;;;;;;;2096641;28;19924;-73
2022/02/05 09:58:09;;;;;;;;;;;;;;;;;;2097981;28;19916;-73
2022/02/05 09:59:28;;;;;;;;;;;;;;;;;;2099799;28;19991;-73
2022/02/05 10:00:47;;;;;;;;;;;;;;;;;;2098356;28;19912;-72
2022/02/05 10:02:06;;;;;;;;;;;;;;;;;;2098386;28;20011;-73
2022/02/05 10:03:25;;;;;;;;;;;;;;;;;;2099169;28;19938;-72
2022/02/05 10:04:44;;;;;;;;;;;;;;;;;;2097368;28;19908;-73
2022/02/05 10:06:02;;;;;;;;;;;;;;;;;;2098142;28;19920;-74
2022/02/05 10:07:21;;;;;;;;;;;;;;;;;;2099671;28;19920;-73
2022/02/05 10:08:40;;;;;;;;;;;;;;;;;;2099235;28;19908;-74
2022/02/05 10:09:59;;;;;;;;;;;;;;;;;;2099356;28;19912;-73
2022/02/05 10:11:18;;;;;;;;;;;;;;;;;;2087724;28;20372;-72
2022/02/05 10:12:37;;;;;;;;;;;;;;;;;;2097496;28;19920;-72
2022/02/05 10:13:56;;;;;;;;;;;;;;;;;;2098729;28;19995;-73
2022/02/05 10:15:15;;;;;;;;;;;;;;;;;;2100725;28;20402;-72
2022/02/05 10:16:35;;;;;;;;;;;;;;;;;;2100323;28;20749;-76
2022/02/05 10:17:54;;;;;;;;;;;;;;;;;;2098303;28;19908;-75
2022/02/05 10:19:13;;;;;;;;;;;;;;;;;;2097160;28;19908;-75
2022/02/05 10:20:31;;;;;;;;;;;;;;;;;;2100703;28;19913;-74
2022/02/05 10:21:50;;;;;;;;;;;;;;;;;;2099054;28;20672;-73
2022/02/05 10:23:09;;;;;;;;;;;;;;;;;;2095682;28;19948;-74
2022/02/05 10:24:29;;;;;;;;;;;;;;;;;;2099789;28;19955;-73
2022/02/05 10:25:49;;;;;;;;;;;;;;;;;;2099459;28;19904;-74
2022/02/05 10:27:08;;;;;;;;;;;;;;;;;;2098040;28;20007;-74
2022/02/05 10:28:27;;;;;;;;;;;;;;;;;;2100335;28;19912;-74
2022/02/05 10:29:47;;;;;;;;;;;;;;;;;;2100675;28;19908;-73
2022/02/05 10:31:05;;;;;;;;;;;;;;;;;;2096245;28;19908;-74
2022/02/05 10:32:24;;;;;;;;;;;;;;;;;;2098526;28;19916;-73
2022/02/05 10:33:43;;;;;;;;;;;;;;;;;;2099004;28;20541;-73
2022/02/05 10:35:18;;;;;;;;;;;;;;;;;;2099837;28;19916;-73
2022/02/05 10:36:37;;;;;;;;;;;;;;;;;;2098083;28;20329;-73
2022/02/05 10:38:03;;;;;;;;;;;;;;;;;;2099750;28;20344;-73
2022/02/05 10:39:30;;;;;;;;;;;;;;;;;;2100161;28;19912;-74
2022/02/05 10:41:01;;;;;;;;;;;;;;;;;;2098331;28;20386;-74
2022/02/05 10:43:57;;;;;;;;;;;;;;;;;;2100967;28;20350;-72
2022/02/05 10:45:16;;;;;;;;;;;;;;;;;;2099678;28;20365;-73
2022/02/05 10:46:36;;;;;;;;;;;;;;;;;;2099172;28;20050;-72
2022/02/05 10:47:54;;;;;;;;;;;;;;;;;;2097885;28;20011;-74
2022/02/05 10:49:13;;;;;;;;;;;;;;;;;;2098696;28;19909;-74
2022/02/05 10:50:35;;;;;;;;;;;;;;;;;;2098200;28;19916;-74
2022/02/05 10:51:58;;;;;;;;;;;;;;;;;;2099881;28;19995;-73
2022/02/05 10:53:20;;;;;;;;;;;;;;;;;;2099737;28;19920;-73
2022/02/05 10:54:50;;;;;;;;;;;;;;;;;;2095970;28;19963;-74
2022/02/05 10:57:40;;;;;;;;;;;;;;;;;;2096716;28;19912;-73
2022/02/05 10:59:37;;;;;;;;;;;;;;;;;;2100145;28;19912;-73
2022/02/05 11:05:17;;;;;;;;;;;;;;;;;;2098822;28;19912;-73
2022/02/05 11:06:36;;;;;;;;;;;;;;;;;;2100872;28;19912;-73
2022/02/05 11:07:55;;;;;;;;;;;;;;;;;;2095904;28;19920;-74
2022/02/05 11:09:14;;;;;;;;;;;;;;;;;;2102446;28;19913;-72
2022/02/05 11:14:57;;;;;;;;;;;;;;;;;;2101196;28;20285;-71
2022/02/05 11:18:00;;;;;;;;;;;;;;;;;;2099854;28;19912;-72
2022/02/05 11:19:02;;;;;;;;;;;;;;;;;;2100544;28;20363;-73
2022/02/05 11:20:21;;;;;;;;;;;;;;;;;;2100011;28;19916;-72
2022/02/05 11:21:40;;;;;;;;;;;;;;;;;;2100908;28;19912;-73
2022/02/05 11:22:58;;;;;;;;;;;;;;;;;;2098151;28;19913;-73
2022/02/05 11:24:17;;;;;;;;;;;;;;;;;;2099530;28;20027;-74
2022/02/05 11:25:36;;;;;;;;;;;;;;;;;;2097155;28;19994;-73
2022/02/05 11:26:55;;;;;;;;;;;;;;;;;;2098100;28;19929;-74
2022/02/05 11:28:14;;;;;;;;;;;;;;;;;;2100220;28;19920;-73
2022/02/05 11:29:33;;;;;;;;;;;;;;;;;;2097012;28;19916;-74
2022/02/05 11:30:54;;;;;;;;;;;;;;;;;;2095268;28;20351;-74
2022/02/05 11:32:13;;;;;;;;;;;;;;;;;;2098772;28;19960;-73